Time;durP1;ratioP1;P1;durP2;ratioP2;P2;SDS_P1;SDS_P2;PMS_P1;PMS_P2;Temp;Humidity;BMP_temperature;BMP_pressure;BME280_temperature;BME280_humidity;BME280_pressure;Samples;Min_cycle;Max_cycle;Signal;HPM_P1;HPM_P2
2021/08/29 00:01:53;;;;;;;10.35;5.30;;;16.00;99.90;;;;;;6115646;23;20026;-69
2021/08/29 00:04:19;;;;;;;13.90;5.15;;;16.00;99.90;;;;;;6090694;23;20018;-70
2021/08/29 00:06:44;;;;;;;10.50;5.22;;;16.00;99.90;;;;;;6067580;23;20032;-69
2021/08/29 00:09:10;;;;;;;13.15;5.03;;;15.90;99.90;;;;;;6067275;23;20028;-70
2021/08/29 00:11:36;;;;;;;14.07;5.40;;;15.90;99.90;;;;;;6090806;23;20454;-68
2021/08/29 00:14:06;;;;;;;13.82;5.65;;;15.90;99.90;;;;;;6092831;23;20018;-69
2021/08/29 00:16:32;;;;;;;11.75;5.50;;;15.90;99.90;;;;;;6092555;23;20026;-69
2021/08/29 00:18:58;;;;;;;14.52;5.28;;;15.80;99.90;;;;;;6114317;23;20025;-69
2021/08/29 00:21:24;;;;;;;15.73;5.65;;;15.80;99.90;;;;;;6116499;23;20098;-68
2021/08/29 00:23:50;;;;;;;10.98;5.03;;;15.80;99.90;;;;;;6088835;23;20022;-68
2021/08/29 00:26:16;;;;;;;14.27;5.78;;;15.80;99.90;;;;;;6092389;23;20120;-69
2021/08/29 00:28:42;;;;;;;14.73;5.22;;;15.80;99.90;;;;;;6090556;23;20033;-69
2021/08/29 00:31:07;;;;;;;15.70;5.43;;;15.80;99.90;;;;;;6116182;23;20050;-69
2021/08/29 00:33:36;;;;;;;8.85;4.68;;;15.70;99.90;;;;;;6088984;23;20037;-69
2021/08/29 00:36:02;;;;;;;10.70;5.68;;;15.70;99.90;;;;;;6069294;23;20033;-69
2021/08/29 00:38:27;;;;;;;15.85;5.60;;;15.70;99.90;;;;;;6115833;23;20350;-68
2021/08/29 00:40:53;;;;;;;12.55;5.30;;;15.70;99.90;;;;;;6066834;23;20125;-69
2021/08/29 00:43:23;;;;;;;11.10;4.43;;;15.70;99.90;;;;;;6068118;23;20021;-68
2021/08/29 00:45:52;;;;;;;15.52;5.10;;;15.70;99.90;;;;;;6090841;23;20092;-68
2021/08/29 00:48:18;;;;;;;13.13;5.05;;;15.70;99.90;;;;;;6116491;23;20018;-69
2021/08/29 00:50:45;;;;;;;11.18;5.10;;;15.80;99.90;;;;;;6067445;23;20489;-70
2021/08/29 00:53:13;;;;;;;12.45;4.93;;;15.70;99.90;;;;;;6092048;23;20044;-70
2021/08/29 00:55:39;;;;;;;13.50;5.35;;;15.70;99.90;;;;;;6114482;23;20542;-69
2021/08/29 00:58:05;;;;;;;12.90;5.32;;;15.80;99.90;;;;;;6090292;23;20267;-70
2021/08/29 01:00:33;;;;;;;17.30;5.13;;;15.80;99.90;;;;;;6056368;23;1348133;-70
2021/08/29 01:03:00;;;;;;;10.77;4.70;;;15.80;99.90;;;;;;6116826;23;20026;-69
2021/08/29 01:05:35;;;;;;;11.45;5.32;;;15.80;99.90;;;;;;6088788;23;20470;-69
2021/08/29 01:08:10;;;;;;;11.68;5.03;;;15.80;99.90;;;;;;6115997;23;20029;-69
2021/08/29 01:10:46;;;;;;;13.50;5.07;;;15.90;99.90;;;;;;6091354;23;20118;-69
2021/08/29 01:13:26;;;;;;;12.23;5.30;;;15.80;99.90;;;;;;6092820;23;20105;-70
2021/08/29 01:15:55;;;;;;;11.02;4.88;;;15.90;99.90;;;;;;6116969;23;20029;-70
2021/08/29 01:18:23;;;;;;;15.13;5.28;;;15.80;99.90;;;;;;6115209;23;20104;-70
2021/08/29 01:21:05;;;;;;;9.32;4.90;;;15.80;99.90;;;;;;6117295;23;20022;-70
2021/08/29 01:23:43;;;;;;;8.60;5.18;;;15.80;99.90;;;;;;6112771;23;20022;-69
2021/08/29 01:26:18;;;;;;;13.93;5.25;;;15.80;99.90;;;;;;6091875;23;20523;-69
2021/08/29 01:28:54;;;;;;;11.55;5.28;;;15.90;99.90;;;;;;6116325;23;20093;-70
2021/08/29 01:31:27;;;;;;;15.15;4.93;;;16.00;99.90;;;;;;6092538;23;20033;-68
2021/08/29 01:33:54;;;;;;;15.60;5.75;;;15.90;99.90;;;;;;6115561;23;20026;-68
2021/08/29 01:36:20;;;;;;;11.50;5.28;;;15.90;99.90;;;;;;6093380;23;20068;-68
2021/08/29 01:38:47;;;;;;;16.38;5.57;;;15.90;99.90;;;;;;6112027;23;20018;-68
2021/08/29 01:41:15;;;;;;;13.93;5.70;;;15.90;99.90;;;;;;6117252;23;20033;-68
2021/08/29 01:43:42;;;;;;;13.98;5.60;;;16.00;99.90;;;;;;6116267;23;20018;-69
2021/08/29 01:46:09;;;;;;;10.40;4.82;;;15.90;99.90;;;;;;6116889;23;20089;-69
2021/08/29 01:48:38;;;;;;;12.85;5.55;;;15.90;99.90;;;;;;6089605;23;20033;-68
2021/08/29 01:51:08;;;;;;;12.70;5.22;;;15.90;99.90;;;;;;6088369;23;20021;-68
2021/08/29 01:53:38;;;;;;;12.43;5.07;;;16.00;99.90;;;;;;6114017;23;20100;-69
2021/08/29 01:56:06;;;;;;;13.73;5.60;;;15.90;99.90;;;;;;6091153;23;20044;-69
2021/08/29 01:58:33;;;;;;;12.38;4.90;;;16.00;99.90;;;;;;6114472;23;20467;-68
2021/08/29 02:01:02;;;;;;;12.50;4.90;;;15.90;99.90;;;;;;6120168;23;20033;-68
2021/08/29 02:03:30;;;;;;;12.07;5.05;;;15.90;99.90;;;;;;6122439;23;20021;-69
2021/08/29 02:06:09;;;;;;;11.18;5.28;;;16.00;99.90;;;;;;6123417;23;20032;-68
2021/08/29 02:08:57;;;;;;;14.23;4.95;;;15.90;99.90;;;;;;6123446;23;20025;-69
2021/08/29 02:11:25;;;;;;;14.48;5.03;;;15.90;99.90;;;;;;6122632;23;20064;-69
2021/08/29 02:13:56;;;;;;;12.65;4.90;;;15.90;99.90;;;;;;6124777;23;20057;-68
2021/08/29 02:16:22;;;;;;;14.60;5.70;;;16.00;99.90;;;;;;6097324;23;20481;-68
2021/08/29 02:18:52;;;;;;;13.18;5.15;;;16.00;99.90;;;;;;6122123;23;20493;-69
2021/08/29 02:21:18;;;;;;;14.50;5.57;;;16.10;99.90;;;;;;6099587;23;20043;-69
2021/08/29 02:24:05;;;;;;;12.07;5.28;;;16.00;99.90;;;;;;6123900;23;20018;-69
2021/08/29 02:26:31;;;;;;;12.68;5.43;;;16.10;99.90;;;;;;6123076;23;20717;-69
2021/08/29 02:28:57;;;;;;;11.88;5.25;;;16.00;99.90;;;;;;6124553;23;20523;-69
2021/08/29 02:31:30;;;;;;;12.55;5.20;;;16.00;99.90;;;;;;6098750;23;20029;-69
2021/08/29 02:33:55;;;;;;;17.95;4.95;;;16.00;99.90;;;;;;6124715;23;20028;-70
2021/08/29 02:36:21;;;;;;;16.35;5.53;;;16.00;99.90;;;;;;6097057;23;20013;-69
2021/08/29 02:38:49;;;;;;;14.30;4.80;;;16.10;99.90;;;;;;6074013;23;20021;-69
2021/08/29 02:41:17;;;;;;;11.05;4.57;;;16.10;99.90;;;;;;6097579;23;20108;-69
2021/08/29 02:43:44;;;;;;;14.63;5.13;;;16.00;99.90;;;;;;6121044;23;20100;-70
2021/08/29 02:46:10;;;;;;;13.13;5.00;;;16.00;99.90;;;;;;6124543;23;20030;-69
2021/08/29 02:48:37;;;;;;;18.40;4.75;;;15.90;99.90;;;;;;6121394;23;20026;-70
2021/08/29 02:51:06;;;;;;;9.07;4.35;;;16.00;99.90;;;;;;6123059;23;20048;-69
2021/08/29 02:53:32;;;;;;;10.40;3.60;;;16.00;99.90;;;;;;6100583;23;20021;-69
2021/08/29 02:55:59;;;;;;;13.35;5.15;;;15.90;99.90;;;;;;6121266;23;20084;-70
2021/08/29 02:58:27;;;;;;;10.32;4.55;;;15.90;99.90;;;;;;6096257;23;20025;-69
2021/08/29 03:00:53;;;;;;;10.65;4.25;;;15.90;99.90;;;;;;6096059;23;20100;-70
2021/08/29 03:03:19;;;;;;;10.25;4.20;;;15.90;99.90;;;;;;6122788;23;20025;-69
2021/08/29 03:05:45;;;;;;;11.13;4.15;;;15.90;99.90;;;;;;6098414;23;20030;-69
2021/08/29 03:08:11;;;;;;;12.35;4.38;;;15.90;99.90;;;;;;6121491;23;20064;-70
2021/08/29 03:10:37;;;;;;;14.27;4.30;;;15.90;99.90;;;;;;6097175;23;20033;-69
2021/08/29 03:13:04;;;;;;;9.05;4.43;;;15.90;99.90;;;;;;6123032;23;20092;-69
2021/08/29 03:15:31;;;;;;;13.55;4.22;;;15.80;99.90;;;;;;6096537;23;20017;-69
2021/08/29 03:17:57;;;;;;;10.68;4.20;;;15.80;99.90;;;;;;6122692;23;20443;-69
2021/08/29 03:20:25;;;;;;;11.98;4.53;;;15.80;99.90;;;;;;6121429;23;20373;-69
2021/08/29 03:22:51;;;;;;;10.57;3.90;;;15.80;99.90;;;;;;6123314;23;20029;-69
2021/08/29 03:25:18;;;;;;;10.40;4.00;;;15.80;99.90;;;;;;6096705;23;20024;-69
2021/08/29 03:27:44;;;;;;;12.68;3.78;;;15.80;99.90;;;;;;6124639;23;20021;-70
2021/08/29 03:30:11;;;;;;;12.00;4.10;;;15.80;99.90;;;;;;6098477;23;20463;-70
2021/08/29 03:32:37;;;;;;;8.55;3.92;;;15.90;99.90;;;;;;6122001;23;20021;-70
2021/08/29 03:35:04;;;;;;;12.55;4.38;;;15.90;99.90;;;;;;6074323;23;20458;-70
2021/08/29 03:37:31;;;;;;;16.50;4.22;;;15.80;99.90;;;;;;6097737;23;20221;-70
2021/08/29 03:39:59;;;;;;;12.77;4.80;;;15.80;99.90;;;;;;6098968;23;20466;-69
2021/08/29 03:42:26;;;;;;;9.75;3.90;;;15.80;99.90;;;;;;6121317;23;20025;-70
2021/08/29 03:44:52;;;;;;;10.57;4.40;;;15.80;99.90;;;;;;6097205;23;20024;-70
2021/08/29 03:47:19;;;;;;;10.70;4.05;;;15.80;99.90;;;;;;6096305;23;20026;-70
2021/08/29 03:49:45;;;;;;;15.10;4.20;;;15.70;99.90;;;;;;6121189;23;20025;-70
2021/08/29 03:52:13;;;;;;;9.80;4.35;;;15.70;99.90;;;;;;6096321;23;20033;-70
2021/08/29 03:54:41;;;;;;;14.00;4.75;;;15.70;99.90;;;;;;6121834;23;20021;-69
2021/08/29 03:57:08;;;;;;;12.45;4.25;;;15.70;99.90;;;;;;6097479;23;20399;-70
2021/08/29 03:59:35;;;;;;;12.63;3.60;;;15.70;99.90;;;;;;6098290;23;20415;-70
2021/08/29 04:02:07;;;;;;;11.95;3.85;;;15.70;99.90;;;;;;6117841;23;20024;-70
2021/08/29 04:04:34;;;;;;;14.02;4.07;;;15.70;99.90;;;;;;6098995;23;20017;-70
2021/08/29 04:07:04;;;;;;;11.43;3.70;;;15.80;99.90;;;;;;6097879;23;20028;-70
2021/08/29 04:09:32;;;;;;;8.77;3.95;;;15.70;99.90;;;;;;6121176;23;20379;-70
2021/08/29 04:11:59;;;;;;;8.75;4.20;;;15.80;99.90;;;;;;6122379;23;20028;-70
2021/08/29 04:14:27;;;;;;;11.52;4.55;;;15.70;99.90;;;;;;6122409;23;20024;-70
2021/08/29 04:16:59;;;;;;;10.25;3.75;;;15.90;99.90;;;;;;6120282;23;20442;-70
2021/08/29 04:19:26;;;;;;;10.57;3.53;;;15.90;99.90;;;;;;6120300;23;20041;-70
2021/08/29 04:21:53;;;;;;;8.68;3.53;;;15.90;99.90;;;;;;6098643;23;20021;-71
2021/08/29 04:24:20;;;;;;;12.43;4.15;;;15.80;99.90;;;;;;6120026;23;20017;-70
2021/08/29 04:26:46;;;;;;;13.30;4.72;;;15.90;99.90;;;;;;6098087;23;20064;-70
2021/08/29 04:29:15;;;;;;;8.77;4.25;;;15.90;99.90;;;;;;6120936;23;20485;-70
2021/08/29 04:31:51;;;;;;;13.88;4.63;;;15.90;99.90;;;;;;6098165;23;20060;-70
2021/08/29 04:34:17;;;;;;;16.88;4.28;;;15.90;99.90;;;;;;6122400;23;20075;-70
2021/08/29 04:36:43;;;;;;;12.68;4.18;;;15.90;99.90;;;;;;6121228;23;20021;-70
2021/08/29 04:39:09;;;;;;;10.07;3.75;;;15.90;99.90;;;;;;6094633;23;20359;-70
2021/08/29 04:41:36;;;;;;;11.77;4.78;;;15.90;99.90;;;;;;6122310;23;20036;-70
2021/08/29 04:44:03;;;;;;;11.13;3.83;;;15.90;99.90;;;;;;6121645;23;20048;-70
2021/08/29 04:46:29;;;;;;;12.38;4.22;;;15.90;99.90;;;;;;6098075;23;20055;-70
2021/08/29 04:48:55;;;;;;;13.10;4.30;;;15.90;99.90;;;;;;6121176;23;20528;-70
2021/08/29 04:51:21;;;;;;;10.85;3.40;;;15.90;99.90;;;;;;6120628;23;20104;-70
2021/08/29 04:53:47;;;;;;;12.98;4.10;;;15.90;99.90;;;;;;6098146;23;20057;-70
2021/08/29 04:56:13;;;;;;;17.50;4.40;;;15.90;99.90;;;;;;6095069;23;20025;-70
2021/08/29 04:58:39;;;;;;;12.23;4.10;;;15.90;99.90;;;;;;6098028;23;20022;-70
2021/08/29 05:01:04;;;;;;;11.77;5.18;;;15.90;99.90;;;;;;6118732;23;20032;-70
2021/08/29 05:03:30;;;;;;;11.07;3.95;;;15.90;99.90;;;;;;6121648;23;20096;-70
2021/08/29 05:05:57;;;;;;;12.73;4.18;;;15.80;99.90;;;;;;6097546;23;20048;-70
2021/08/29 05:08:23;;;;;;;15.77;4.47;;;15.80;99.90;;;;;;6073367;23;20021;-70
2021/08/29 05:10:48;;;;;;;12.40;4.20;;;15.90;99.90;;;;;;6123295;23;20025;-70
2021/08/29 05:13:14;;;;;;;15.48;4.70;;;15.80;99.90;;;;;;6073668;23;20048;-71
2021/08/29 05:15:40;;;;;;;13.00;4.35;;;15.90;99.90;;;;;;6098143;23;20084;-69
2021/08/29 05:18:06;;;;;;;18.75;4.40;;;15.90;99.90;;;;;;6097279;23;20052;-70
2021/08/29 05:20:31;;;;;;;11.50;4.50;;;15.90;99.90;;;;;;6122674;23;20506;-70
2021/08/29 05:22:57;;;;;;;17.63;4.35;;;15.90;99.90;;;;;;6120708;23;20350;-70
2021/08/29 05:25:23;;;;;;;13.45;4.50;;;15.90;99.90;;;;;;6122936;23;20443;-69
2021/08/29 05:27:49;;;;;;;14.02;4.60;;;15.90;99.90;;;;;;6098197;23;20028;-70
2021/08/29 05:30:15;;;;;;;15.38;5.20;;;15.80;99.90;;;;;;6096574;23;20017;-71
2021/08/29 05:32:40;;;;;;;14.70;5.55;;;15.80;99.90;;;;;;6098965;23;20151;-69
2021/08/29 05:35:07;;;;;;;12.55;4.68;;;15.80;99.90;;;;;;6071748;23;20093;-70
2021/08/29 05:37:32;;;;;;;11.77;4.43;;;15.70;99.90;;;;;;6123275;23;20064;-70
2021/08/29 05:39:58;;;;;;;14.98;4.38;;;15.70;99.90;;;;;;6098400;23;20052;-69
2021/08/29 05:42:24;;;;;;;8.90;3.70;;;15.70;99.90;;;;;;6100368;23;20030;-69
2021/08/29 05:44:50;;;;;;;11.48;4.38;;;15.60;99.90;;;;;;6097142;23;20414;-69
2021/08/29 05:47:15;;;;;;;15.13;4.50;;;15.50;99.90;;;;;;6100554;23;20353;-69
2021/08/29 05:49:44;;;;;;;12.02;4.50;;;15.40;99.90;;;;;;6121473;23;20025;-69
2021/08/29 05:52:10;;;;;;;10.73;4.15;;;15.40;99.90;;;;;;6121140;23;20026;-70
2021/08/29 05:54:36;;;;;;;11.55;4.75;;;15.30;99.90;;;;;;6073940;23;20083;-69
2021/08/29 05:57:02;;;;;;;13.43;4.03;;;15.30;99.90;;;;;;6073445;23;20021;-69
2021/08/29 05:59:28;;;;;;;13.38;4.65;;;15.30;99.90;;;;;;6122299;23;20029;-69
2021/08/29 06:01:53;;;;;;;12.63;4.57;;;15.30;99.90;;;;;;6090541;23;20696;-69
2021/08/29 06:04:19;;;;;;;13.43;4.13;;;15.30;99.90;;;;;;6094242;23;20018;-69
2021/08/29 06:06:45;;;;;;;14.68;4.90;;;15.30;99.90;;;;;;6114907;23;20026;-69
2021/08/29 06:09:11;;;;;;;15.38;5.78;;;15.30;99.90;;;;;;6116774;23;20394;-69
2021/08/29 06:11:36;;;;;;;17.25;5.65;;;15.30;99.90;;;;;;6093595;23;20025;-69
2021/08/29 06:14:04;;;;;;;17.70;5.43;;;15.30;99.90;;;;;;6092784;23;20770;-69
2021/08/29 06:16:30;;;;;;;12.52;5.05;;;15.30;99.90;;;;;;6116832;23;20030;-69
2021/08/29 06:18:56;;;;;;;13.15;4.53;;;15.40;99.90;;;;;;6093772;23;20089;-69
2021/08/29 06:21:21;;;;;;;20.27;5.00;;;15.40;99.90;;;;;;6093440;23;20080;-70
2021/08/29 06:23:50;;;;;;;14.02;5.10;;;15.30;99.90;;;;;;6092936;23;20072;-68
2021/08/29 06:26:16;;;;;;;14.07;4.10;;;15.40;99.90;;;;;;6116070;23;20021;-67
2021/08/29 06:28:42;;;;;;;16.95;4.05;;;15.40;99.90;;;;;;6068265;23;20044;-68
2021/08/29 06:31:08;;;;;;;14.65;3.75;;;15.30;99.90;;;;;;6094052;23;20033;-68
2021/08/29 06:33:37;;;;;;;13.52;4.13;;;15.30;99.90;;;;;;6068509;23;20028;-68
2021/08/29 06:36:02;;;;;;;14.95;4.10;;;15.30;99.90;;;;;;6092375;23;20124;-68
2021/08/29 06:38:28;;;;;;;15.23;4.25;;;15.30;99.90;;;;;;6092884;23;20065;-69
2021/08/29 06:40:54;;;;;;;15.80;4.38;;;15.30;99.90;;;;;;6116838;23;20040;-69
2021/08/29 06:43:20;;;;;;;18.70;3.88;;;15.30;99.90;;;;;;6118992;23;20029;-69
2021/08/29 06:45:45;;;;;;;17.08;4.32;;;15.30;99.90;;;;;;6067842;23;20109;-68
2021/08/29 06:48:11;;;;;;;16.48;4.15;;;15.20;99.90;;;;;;6094422;23;20045;-68
2021/08/29 06:50:40;;;;;;;17.30;4.63;;;15.20;99.90;;;;;;6116345;23;20029;-69
2021/08/29 06:53:06;;;;;;;17.15;5.05;;;15.30;99.90;;;;;;6119774;23;20029;-68
2021/08/29 06:55:32;;;;;;;16.98;4.72;;;15.30;99.90;;;;;;6094578;23;20026;-68
2021/08/29 06:57:57;;;;;;;14.52;4.60;;;15.30;99.90;;;;;;6115776;23;20018;-68
2021/08/29 07:00:23;;;;;;;14.80;4.40;;;15.30;99.90;;;;;;6095750;23;20030;-69
2021/08/29 07:02:49;;;;;;;19.05;4.75;;;15.30;99.90;;;;;;6116251;23;20358;-69
2021/08/29 07:05:15;;;;;;;14.88;3.90;;;15.30;99.90;;;;;;6094118;23;20018;-69
2021/08/29 07:07:40;;;;;;;20.63;5.43;;;15.30;99.90;;;;;;6116318;23;20022;-69
2021/08/29 07:10:07;;;;;;;23.13;4.65;;;15.40;99.90;;;;;;6069432;23;20109;-69
2021/08/29 07:12:32;;;;;;;16.73;5.03;;;15.40;99.90;;;;;;6071042;23;20033;-69
2021/08/29 07:14:58;;;;;;;14.05;4.85;;;15.40;99.90;;;;;;6116316;23;20847;-69
2021/08/29 07:17:24;;;;;;;17.75;4.50;;;15.40;99.90;;;;;;6094503;23;20052;-70
2021/08/29 07:19:50;;;;;;;19.00;4.85;;;15.50;99.90;;;;;;6115609;23;20030;-69
2021/08/29 07:22:15;;;;;;;17.17;4.75;;;15.60;99.90;;;;;;6092688;23;20026;-69
2021/08/29 07:24:41;;;;;;;18.60;4.72;;;15.60;99.90;;;;;;6115867;23;20120;-69
2021/08/29 07:27:07;;;;;;;16.02;4.72;;;15.70;99.90;;;;;;6094184;23;20022;-69
2021/08/29 07:29:33;;;;;;;14.93;5.45;;;15.60;99.90;;;;;;6094042;23;20022;-69
2021/08/29 07:31:59;;;;;;;18.27;5.10;;;15.60;99.90;;;;;;6093687;23;20255;-70
2021/08/29 07:34:25;;;;;;;16.80;5.38;;;15.50;99.90;;;;;;6116909;23;20096;-69
2021/08/29 07:36:52;;;;;;;16.50;5.57;;;15.60;99.90;;;;;;6092582;23;20362;-69
2021/08/29 07:39:17;;;;;;;13.98;4.68;;;15.60;99.90;;;;;;6067952;23;20481;-70
2021/08/29 07:41:43;;;;;;;17.98;5.18;;;15.50;99.90;;;;;;6069221;23;20026;-70
2021/08/29 07:44:09;;;;;;;15.38;4.97;;;15.60;99.90;;;;;;6116629;23;20044;-70
2021/08/29 07:46:35;;;;;;;16.00;4.93;;;15.60;99.90;;;;;;6091546;23;20030;-70
2021/08/29 07:49:00;;;;;;;12.48;5.10;;;15.60;99.90;;;;;;6069452;23;20029;-69
2021/08/29 07:51:26;;;;;;;15.00;5.30;;;15.70;99.90;;;;;;6116859;23;20351;-69
2021/08/29 07:53:52;;;;;;;14.25;5.20;;;15.70;99.90;;;;;;6116531;23;20024;-70
2021/08/29 07:56:18;;;;;;;13.18;5.72;;;15.70;99.90;;;;;;6068566;23;20109;-69
2021/08/29 07:58:44;;;;;;;13.48;5.35;;;15.70;99.90;;;;;;6115932;23;20026;-69
2021/08/29 08:01:09;;;;;;;11.85;5.50;;;15.70;99.90;;;;;;6095250;23;20022;-70
2021/08/29 08:03:37;;;;;;;19.67;6.88;;;15.70;99.90;;;;;;6120075;23;20096;-70
2021/08/29 08:06:06;;;;;;;16.63;6.15;;;15.70;99.90;;;;;;6096648;23;20052;-69
2021/08/29 08:08:32;;;;;;;19.27;6.80;;;15.70;99.90;;;;;;6097259;23;20025;-69
2021/08/29 08:10:58;;;;;;;15.48;7.85;;;15.80;99.90;;;;;;6120588;23;20076;-69
2021/08/29 08:13:24;;;;;;;19.30;8.20;;;15.80;99.90;;;;;;6097361;23;20025;-69
2021/08/29 08:15:50;;;;;;;15.88;7.43;;;15.80;99.90;;;;;;6095368;23;20029;-69
2021/08/29 08:18:16;;;;;;;15.27;7.30;;;15.90;99.90;;;;;;6120866;23;20389;-68
2021/08/29 08:20:42;;;;;;;16.92;7.68;;;15.90;99.90;;;;;;6074166;23;20026;-77
2021/08/29 08:23:08;;;;;;;16.90;7.28;;;15.90;99.90;;;;;;6097628;23;20017;-68
2021/08/29 08:25:34;;;;;;;17.42;8.30;;;15.90;99.90;;;;;;6119923;23;20361;-69
2021/08/29 08:28:00;;;;;;;16.67;8.30;;;16.00;99.90;;;;;;6121079;23;20024;-69
2021/08/29 08:30:25;;;;;;;15.43;7.55;;;16.10;99.90;;;;;;6097495;23;20096;-69
2021/08/29 08:32:51;;;;;;;17.70;6.93;;;16.10;99.90;;;;;;6121753;23;20080;-69
2021/08/29 08:35:17;;;;;;;17.33;7.95;;;16.20;99.90;;;;;;6121734;23;20494;-69
2021/08/29 08:37:43;;;;;;;16.30;6.45;;;16.20;99.90;;;;;;6073464;23;20093;-69
2021/08/29 08:40:09;;;;;;;14.15;6.80;;;16.30;99.90;;;;;;6122630;23;20024;-68
2021/08/29 08:42:35;;;;;;;16.80;7.35;;;16.30;99.90;;;;;;6122852;23;20079;-69
2021/08/29 08:45:01;;;;;;;17.10;7.03;;;16.40;99.90;;;;;;6072046;23;20105;-69
2021/08/29 08:47:28;;;;;;;17.90;6.82;;;16.50;99.90;;;;;;6097681;23;20036;-68
2021/08/29 08:49:57;;;;;;;20.90;7.10;;;16.50;99.90;;;;;;6119548;23;20022;-70
2021/08/29 08:52:26;;;;;;;13.40;6.55;;;16.40;99.90;;;;;;6075346;23;20021;-70
2021/08/29 08:54:55;;;;;;;15.13;6.45;;;16.40;99.90;;;;;;6119331;23;20022;-70
2021/08/29 08:57:22;;;;;;;18.43;7.47;;;16.40;99.90;;;;;;6075169;23;20088;-69
2021/08/29 08:59:48;;;;;;;20.00;7.13;;;16.40;99.90;;;;;;6095943;23;20481;-70
2021/08/29 09:02:17;;;;;;;23.30;6.53;;;16.40;99.90;;;;;;6092327;23;20026;-67
2021/08/29 09:04:43;;;;;;;20.83;6.85;;;16.40;99.90;;;;;;6114531;23;20022;-67
2021/08/29 09:07:09;;;;;;;15.68;6.18;;;16.40;99.90;;;;;;6114598;23;20049;-67
2021/08/29 09:09:36;;;;;;;15.05;7.22;;;16.40;99.90;;;;;;6093481;23;20030;-68
2021/08/29 09:12:02;;;;;;;16.80;6.50;;;16.40;99.90;;;;;;6092179;23;20355;-68
2021/08/29 09:14:44;;;;;;;19.48;6.72;;;16.40;99.90;;;;;;6115451;23;20029;-68
2021/08/29 09:17:31;;;;;;;20.42;7.28;;;16.40;99.90;;;;;;6091985;23;20022;-68
2021/08/29 09:20:14;;;;;;;14.32;6.53;;;16.40;99.90;;;;;;6114907;23;20026;-68
2021/08/29 09:22:41;;;;;;;13.68;6.25;;;16.40;99.90;;;;;;6117961;23;20022;-68
2021/08/29 09:25:12;;;;;;;15.25;6.22;;;16.40;99.90;;;;;;6117251;23;20026;-68
2021/08/29 09:27:47;;;;;;;12.93;6.72;;;16.50;99.90;;;;;;6092969;23;20022;-68
2021/08/29 09:30:14;;;;;;;14.43;6.75;;;16.40;99.90;;;;;;6092279;23;20024;-69
2021/08/29 09:32:56;;;;;;;15.43;6.55;;;16.40;99.90;;;;;;6118347;23;20026;-68
2021/08/29 09:35:25;;;;;;;11.45;6.10;;;16.40;99.90;;;;;;6092206;23;20041;-68
2021/08/29 09:37:52;;;;;;;12.63;6.57;;;16.40;99.90;;;;;;6116996;23;20414;-68
2021/08/29 09:40:22;;;;;;;12.40;5.80;;;16.40;99.90;;;;;;6093081;23;20022;-68
2021/08/29 09:42:50;;;;;;;13.55;6.18;;;16.50;99.90;;;;;;6116412;23;20350;-70
2021/08/29 09:45:36;;;;;;;14.18;5.25;;;16.50;99.90;;;;;;6090987;23;20817;-69
2021/08/29 09:48:01;;;;;;;11.25;5.88;;;16.50;99.90;;;;;;6090215;23;20471;-70
2021/08/29 09:50:28;;;;;;;12.75;5.63;;;16.50;99.90;;;;;;6091862;23;20026;-69
2021/08/29 09:53:17;;;;;;;10.48;4.95;;;16.50;99.90;;;;;;6115618;23;20398;-69
2021/08/29 09:55:45;;;;;;;12.68;5.72;;;16.50;99.90;;;;;;6092910;23;20033;-69
2021/08/29 09:58:32;;;;;;;10.77;5.00;;;16.60;99.90;;;;;;6115259;23;20060;-70
2021/08/29 10:01:11;;;;;;;11.13;5.03;;;16.70;99.90;;;;;;6116145;23;20022;-68
2021/08/29 10:03:39;;;;;;;9.40;4.85;;;16.60;99.90;;;;;;6120271;23;20028;-68
2021/08/29 10:06:35;;;;;;;12.32;4.32;;;16.60;99.90;;;;;;6120112;23;20025;-68
2021/08/29 10:09:02;;;;;;;11.35;5.03;;;16.60;99.90;;;;;;6107960;23;20025;-69
2021/08/29 10:11:32;;;;;;;9.80;4.85;;;16.60;99.90;;;;;;6097006;23;20018;-68
2021/08/29 10:14:00;;;;;;;9.30;4.85;;;16.60;99.90;;;;;;6095877;23;20028;-68
2021/08/29 10:16:29;;;;;;;9.30;4.93;;;16.60;99.90;;;;;;6097518;23;20342;-68
2021/08/29 10:18:56;;;;;;;9.75;4.70;;;16.60;99.90;;;;;;6119663;23;20029;-68
2021/08/29 10:21:25;;;;;;;11.65;4.85;;;16.60;99.90;;;;;;6096721;23;20021;-68
2021/08/29 10:23:53;;;;;;;9.23;4.90;;;16.60;99.90;;;;;;6094986;23;20025;-67
2021/08/29 10:26:22;;;;;;;11.25;5.10;;;16.70;99.90;;;;;;6121573;23;20018;-68
2021/08/29 10:28:58;;;;;;;9.35;5.90;;;16.60;99.90;;;;;;6099222;23;20032;-69
2021/08/29 10:32:00;;;;;;;11.65;5.40;;;16.60;99.90;;;;;;6122716;23;20029;-70
2021/08/29 10:34:33;;;;;;;9.90;5.82;;;16.60;99.90;;;;;;6117698;23;20017;-69
2021/08/29 10:37:00;;;;;;;11.05;5.18;;;16.50;99.90;;;;;;6095417;23;20021;-69
2021/08/29 10:39:26;;;;;;;11.40;5.10;;;16.50;99.90;;;;;;6096826;23;20022;-68
2021/08/29 10:41:54;;;;;;;10.18;4.68;;;16.50;99.90;;;;;;6095964;23;20087;-68
2021/08/29 10:44:21;;;;;;;12.63;6.05;;;16.50;99.90;;;;;;6122040;23;20027;-69
2021/08/29 10:46:48;;;;;;;10.68;4.95;;;16.50;99.90;;;;;;6073287;23;20337;-68
2021/08/29 10:49:19;;;;;;;8.57;4.90;;;16.60;99.90;;;;;;6095505;23;20028;-68
2021/08/29 10:51:46;;;;;;;12.40;4.95;;;16.60;99.90;;;;;;6097455;23;20356;-69
2021/08/29 10:54:14;;;;;;;10.73;5.20;;;16.70;99.90;;;;;;6071337;23;20029;-68
2021/08/29 10:56:41;;;;;;;8.90;5.15;;;16.70;99.90;;;;;;6096707;23;20031;-69
2021/08/29 10:59:07;;;;;;;9.00;4.72;;;16.80;99.90;;;;;;6120326;23;20024;-69
2021/08/29 11:01:37;;;;;;;10.80;4.85;;;16.80;99.90;;;;;;6091894;23;20093;-68
2021/08/29 11:04:21;;;;;;;11.63;4.70;;;16.90;99.90;;;;;;6114374;23;20022;-69
2021/08/29 11:06:48;;;;;;;8.77;4.30;;;17.00;99.90;;;;;;6113593;23;20037;-68
2021/08/29 11:09:35;;;;;;;11.15;4.28;;;17.00;99.90;;;;;;6042783;23;20072;-68
2021/08/29 11:12:27;;;;;;;9.00;4.68;;;17.10;99.90;;;;;;6092534;23;20097;-68
2021/08/29 11:14:55;;;;;;;10.27;4.72;;;17.10;99.90;;;;;;6090515;23;20026;-68
2021/08/29 11:17:23;;;;;;;10.32;3.72;;;17.10;99.90;;;;;;6115605;23;20033;-69
2021/08/29 11:19:53;;;;;;;5.80;3.95;;;17.00;99.90;;;;;;6117527;23;20057;-68
2021/08/29 11:22:26;;;;;;;7.53;4.10;;;17.00;99.90;;;;;;6090788;23;20061;-69
2021/08/29 11:25:14;;;;;;;12.95;4.97;;;17.00;99.90;;;;;;6117972;23;20022;-68
2021/08/29 11:27:47;;;;;;;8.93;4.32;;;17.00;99.90;;;;;;6116786;23;20131;-69
2021/08/29 11:30:15;;;;;;;10.38;5.18;;;17.00;99.90;;;;;;6115510;23;20452;-69
2021/08/29 11:32:56;;;;;;;8.70;4.78;;;17.00;99.90;;;;;;6116604;23;20030;-68
2021/08/29 11:35:21;;;;;;;10.68;5.05;;;17.00;99.90;;;;;;6116659;23;20024;-69
2021/08/29 11:38:05;;;;;;;8.75;4.93;;;17.00;99.90;;;;;;6114346;23;20124;-68
2021/08/29 11:40:55;;;;;;;7.30;4.82;;;17.00;99.90;;;;;;6091063;23;20037;-69
2021/08/29 11:43:27;;;;;;;8.48;4.13;;;17.00;99.90;;;;;;6116945;23;20049;-69
2021/08/29 11:46:03;;;;;;;7.75;5.13;;;17.00;99.90;;;;;;6092047;23;20082;-68
2021/08/29 11:48:31;;;;;;;8.75;5.05;;;17.10;99.90;;;;;;6116618;23;20143;-69
2021/08/29 11:50:58;;;;;;;9.60;5.43;;;17.10;99.90;;;;;;6115166;23;20553;-69
2021/08/29 11:53:25;;;;;;;10.57;5.13;;;17.10;99.90;;;;;;6093103;23;20076;-69
2021/08/29 11:56:08;;;;;;;9.88;4.60;;;17.10;99.90;;;;;;6091924;23;20026;-69
2021/08/29 11:58:37;;;;;;;9.82;5.10;;;17.10;99.90;;;;;;6088972;23;20101;-69
2021/08/29 12:01:06;;;;;;;10.63;5.13;;;17.10;99.90;;;;;;6118578;23;20101;-69
2021/08/29 12:03:36;;;;;;;11.32;4.80;;;17.10;99.90;;;;;;6096368;23;20481;-69
2021/08/29 12:06:24;;;;;;;10.27;5.28;;;17.10;99.90;;;;;;6121252;23;20541;-69
2021/08/29 12:09:13;;;;;;;7.32;5.15;;;17.10;99.90;;;;;;6121417;23;20060;-69
2021/08/29 12:11:42;;;;;;;8.23;5.30;;;17.10;99.90;;;;;;6096230;23;20033;-67
2021/08/29 12:14:19;;;;;;;6.30;5.17;;;17.10;99.90;;;;;;6075139;23;20480;-68
2021/08/29 12:16:51;;;;;;;8.18;5.30;;;17.00;99.90;;;;;;6119201;23;20257;-68
2021/08/29 12:19:20;;;;;;;7.93;5.00;;;17.00;99.90;;;;;;6123475;23;20454;-68
2021/08/29 12:21:46;;;;;;;8.75;5.15;;;17.00;99.90;;;;;;6097397;23;20036;-68
2021/08/29 12:24:13;;;;;;;9.48;5.88;;;17.10;99.90;;;;;;6072792;23;20017;-68
2021/08/29 12:26:41;;;;;;;8.93;5.32;;;17.10;99.90;;;;;;6123221;23;20025;-69
2021/08/29 12:29:08;;;;;;;7.65;5.28;;;17.10;99.90;;;;;;6095916;23;20021;-69
2021/08/29 12:31:39;;;;;;;8.82;5.20;;;17.10;99.90;;;;;;6098358;23;20715;-69
2021/08/29 12:34:05;;;;;;;9.65;5.57;;;17.10;99.90;;;;;;6122466;23;20537;-69
2021/08/29 12:36:31;;;;;;;10.18;6.25;;;17.10;99.90;;;;;;6072371;23;20029;-68
2021/08/29 12:38:57;;;;;;;10.43;6.10;;;17.20;99.90;;;;;;6122422;23;20026;-68
2021/08/29 12:41:23;;;;;;;11.85;5.80;;;17.20;99.90;;;;;;6122108;23;20613;-68
2021/08/29 12:43:49;;;;;;;9.60;6.43;;;17.30;99.90;;;;;;6122166;23;20017;-68
2021/08/29 12:46:15;;;;;;;10.82;6.72;;;17.30;99.90;;;;;;6072766;23;20028;-68